Latest Weather Observations for Lockhart River

IDQ60801

Issued at 10:05 am EST Tuesday 2 September 2014 (issued every 30 minutes, with the page automatically refreshed every 10 minutes)

About weather observations | Map of weather stations | Latest weather observations for QLD | Other Formats
Station Details ID: 028008 Name: LOCKHART RIVER AIRPORT Lat: -12.79 Lon: 143.30 Height: 18.5 m
Data from the previous 72 hours. | See also: Recent months at Lockhart River
Date/Time
EST
Temp
°C
App
Temp
°C
Dew
Point
Rel
Hum
%
Delta-T
°C
Wind Press
QNH
hPa
Press
MSL
hPa
Rain
since 9 am
mm
Dir
 
Spd
km/h
Gust
km/h
Spd
kts
Gust
kts
02/10:00am 26.3 25.3 19.7 67 4.3 SE 24 35 13 19 1016.8 - 0.0
02/09:30am 25.6 24.1 19.5 69 3.9 SE 26 33 14 18 1016.7 - 0.0
02/09:00am 24.7 23.6 19.5 73 3.3 SE 24 33 13 18 1016.7 1016.5 0.0
02/08:30am 24.1 24.0 19.6 76 2.9 SE 19 24 10 13 1016.5 - 0.0
02/08:00am 23.3 23.0 19.2 78 2.6 SE 19 24 10 13 1016.3 - 0.0
02/07:30am 22.2 24.1 19.0 82 2.0 S 7 11 4 6 1016.1 - 0.0
02/07:00am 22.3 23.7 18.7 80 2.3 S 9 13 5 7 1015.4 - 0.0
02/06:30am 22.6 23.2 18.6 78 2.5 SSE 13 20 7 11 1015.0 - 0.0
02/06:00am 22.5 23.2 18.9 80 2.3 SSE 13 19 7 10 1014.7 1014.6 0.0
02/05:30am 22.0 23.7 19.4 85 1.7 SSE 9 11 5 6 1014.5 - 0.0
02/05:00am 22.1 23.9 19.5 85 1.7 SSE 9 13 5 7 1014.4 - 0.0
02/04:30am 22.0 23.3 19.2 84 1.8 SSE 11 13 6 7 1014.4 - 0.0
02/04:00am 22.1 23.8 19.3 84 1.8 SSE 9 13 5 7 1014.4 - 0.0
02/03:30am 22.2 23.8 19.2 83 1.9 SSE 9 11 5 6 1014.3 - 0.0
02/03:00am 22.4 24.5 19.4 83 1.9 SE 7 11 4 6 1014.5 1014.5 0.0
02/02:30am 22.3 23.9 19.1 82 2.0 SSE 9 11 5 6 1014.6 - 0.0
02/02:00am 22.8 23.2 19.0 79 2.4 SSE 15 19 8 10 1014.8 - 0.0
02/01:30am 23.4 23.8 19.1 77 2.7 SE 15 19 8 10 1015.0 - 0.0
02/01:00am 23.5 23.6 19.2 77 2.7 ESE 17 20 9 11 1015.2 - 0.0
02/12:30am 23.5 23.7 19.4 78 2.6 SE 17 26 9 14 1015.6 - 0.0
02/12:00am 23.7 23.8 19.2 76 2.9 ESE 17 22 9 12 1015.9 1015.8 0.0
 
Date/Time
EST
Temp
°C
App
Temp
°C
Dew
Point
Rel
Hum
%
Delta-T
°C
Wind Press
QNH
hPa
Press
MSL
hPa
Rain
since 9 am
mm
Dir
 
Spd
km/h
Gust
km/h
Spd
kts
Gust
kts
01/11:30pm 23.9 23.7 19.4 76 2.9 SE 19 28 10 15 1016.1 - 0.0
01/11:00pm 23.8 24.1 19.5 77 2.8 ESE 17 24 9 13 1016.1 - 0.0
01/10:30pm 23.9 24.1 19.4 76 2.9 ESE 17 24 9 13 1016.1 - 0.0
01/10:00pm 23.5 24.5 19.4 78 2.6 ESE 13 19 7 10 1016.3 - 0.0
01/09:30pm 23.7 24.3 19.4 77 2.8 ESE 15 20 8 11 1016.2 - 0.0
01/09:00pm 23.9 25.0 19.6 77 2.8 ESE 13 19 7 10 1016.1 1016.1 0.0
01/08:30pm 23.4 24.3 19.3 78 2.6 SE 13 19 7 10 1015.7 - 0.0
01/08:00pm 23.7 23.8 19.2 76 2.9 ESE 17 28 9 15 1015.2 - 0.0
01/07:30pm 24.0 24.5 19.3 75 3.0 ESE 15 22 8 12 1014.8 - 0.0
01/07:00pm 24.2 24.5 19.5 75 3.0 ESE 17 22 9 12 1014.4 - 0.0
01/06:30pm 24.3 24.7 18.9 72 3.4 ESE 15 22 8 12 1014.1 - 0.0
01/06:00pm 24.4 24.5 18.3 69 3.8 ESE 15 24 8 13 1013.8 1013.7 0.0
01/05:30pm 24.9 23.7 18.3 66 4.2 SE 22 30 12 16 1013.6 - 0.0
01/05:00pm 26.0 24.8 18.4 63 4.8 ESE 22 30 12 16 1013.4 - 0.0
01/04:30pm 26.3 24.5 17.9 60 5.3 ESE 24 35 13 19 1013.1 - 0.0
01/04:00pm 26.7 24.8 18.6 61 5.2 SE 26 39 14 21 1013.0 - 0.0
01/03:30pm 26.5 24.2 18.4 61 5.2 ESE 28 35 15 19 1012.9 - 0.0
01/03:00pm 27.0 25.5 18.6 60 5.4 ESE 24 35 13 19 1013.1 1013.0 0.0
01/02:30pm 26.8 24.8 18.4 60 5.3 ESE 26 37 14 20 1013.3 - 0.0
01/02:00pm 27.8 26.0 19.6 61 5.3 ESE 28 39 15 21 1013.6 - 0.0
01/01:30pm 27.9 26.8 19.4 60 5.5 ESE 24 35 13 19 1013.9 - 0.0
01/01:00pm 27.5 26.1 18.8 59 5.6 ESE 24 35 13 19 1014.3 - 0.0
01/12:30pm 28.5 26.5 19.1 56 6.1 ESE 28 43 15 23 1014.8 - 0.0
01/12:00pm 28.2 25.8 19.1 57 5.9 SE 30 41 16 22 1015.0 1014.9 0.0
01/11:30am 27.2 25.1 19.0 61 5.3 ESE 28 37 15 20 1015.3 - 0.0
01/11:00am 26.8 25.3 18.6 60 5.2 ESE 24 35 13 19 1015.5 - 0.0
01/10:30am 26.4 24.3 19.0 63 4.7 SE 28 39 15 21 1015.7 - 0.0
01/10:00am 26.8 25.2 19.2 63 4.9 ESE 26 37 14 20 1015.7 - 0.0
01/09:30am 26.3 25.1 19.2 65 4.6 SE 24 33 13 18 1015.9 - 0.0
01/09:00am 25.0 24.6 19.4 71 3.6 SE 20 26 11 14 1015.8 1015.7 0.0
01/08:30am 22.9 25.2 19.9 83 1.9 SSE 7 13 4 7 1015.7 - 0.0
01/08:00am 21.7 24.6 19.8 89 1.2 S 4 9 2 5 1015.4 - 0.0
01/07:30am 20.7 24.2 19.5 93 0.8 CALM 0 0 0 0 1015.2 - 0.0
01/07:00am 20.1 23.4 19.1 94 0.6 CALM 0 0 0 0 1015.0 - 0.0
01/06:30am 19.6 22.7 18.6 94 0.6 CALM 0 0 0 0 1014.7 - 0.0
01/06:00am 19.2 22.1 18.2 94 0.6 CALM 0 0 0 0 1014.4 1014.3 0.0
01/05:30am 18.8 21.5 17.8 94 0.6 CALM 0 0 0 0 1013.9 - 0.0
01/05:00am 18.4 20.9 17.2 93 0.7 CALM 0 0 0 0 1013.8 - 0.0
01/04:30am 18.5 21.0 17.3 93 0.7 CALM 0 0 0 0 1013.9 - 0.0
01/04:00am 18.9 21.6 17.7 93 0.7 CALM 0 0 0 0 1013.9 - 0.0
01/03:30am 19.2 22.0 17.9 92 0.8 CALM 0 0 0 0 1013.8 - 0.0
01/03:00am 19.7 22.6 18.2 91 0.9 CALM 0 0 0 0 1013.8 1013.7 0.0
01/02:30am 20.3 23.4 18.6 90 1.1 CALM 0 0 0 0 1013.7 - 0.0
01/02:00am 21.1 24.1 18.5 85 1.6 CALM 0 4 0 2 1013.8 - 0.0
01/01:30am 22.6 24.3 19.4 82 2.0 ESE 9 11 5 6 1013.9 - 0.0
01/01:00am 22.3 24.3 19.1 82 2.0 SE 7 11 4 6 1014.1 - 0.0
01/12:30am 22.5 24.5 19.1 81 2.2 SE 7 9 4 5 1014.4 - 0.0
01/12:00am 22.6 24.5 19.0 80 2.3 SE 7 13 4 7 1014.5 1014.4 0.0
 
Date/Time
EST
Temp
°C
App
Temp
°C
Dew
Point
Rel
Hum
%
Delta-T
°C
Wind Press
QNH
hPa
Press
MSL
hPa
Rain
since 9 am
mm
Dir
 
Spd
km/h
Gust
km/h
Spd
kts
Gust
kts
31/11:30pm 23.0 24.4 18.7 77 2.7 SE 9 13 5 7 1014.7 - 0.0
31/11:00pm 23.2 23.9 18.9 77 2.7 ESE 13 19 7 10 1014.8 - 0.0
31/10:30pm 23.3 24.5 19.0 77 2.7 SE 11 13 6 7 1014.9 - 0.0
31/10:00pm 23.4 24.2 19.1 77 2.7 SE 13 17 7 9 1014.9 - 0.0
31/09:30pm 23.4 23.8 19.1 77 2.7 SE 15 22 8 12 1014.8 - 0.0
31/09:00pm 23.5 24.4 19.2 77 2.7 ESE 13 19 7 10 1014.7 1014.6 0.0
31/08:30pm 23.4 23.8 19.1 77 2.7 ESE 15 22 8 12 1014.4 - 0.0
31/08:00pm 23.5 24.0 19.2 77 2.7 ESE 15 20 8 11 1014.0 - 0.0
31/07:30pm 23.6 24.1 19.3 77 2.7 ESE 15 24 8 13 1013.7 - 0.0
31/07:00pm 23.6 24.1 19.3 77 2.7 ESE 15 19 8 10 1013.5 - 0.0
31/06:30pm 23.6 24.0 18.9 75 3.0 ESE 15 20 8 11 1013.0 - 0.0
31/06:00pm 24.0 24.0 18.9 73 3.2 ESE 17 24 9 13 1012.6 1012.5 0.0
31/05:30pm 24.5 23.4 18.7 70 3.7 ESE 22 32 12 17 1012.4 - 0.0
31/05:00pm 24.9 23.8 18.6 68 4.0 ESE 22 30 12 16 1011.9 - 0.0
31/04:30pm 26.2 24.4 18.8 63 4.7 ESE 26 37 14 20 1011.9 - 0.0
31/04:00pm 26.0 24.4 18.4 63 4.8 ESE 24 37 13 20 1011.7 - 0.0
31/03:30pm 26.8 26.0 19.2 63 4.9 ESE 22 33 12 18 1011.7 - 0.0
31/03:00pm 26.6 25.3 19.0 63 4.9 ESE 24 30 13 16 1011.8 1011.7 0.0
31/02:30pm 27.1 25.1 19.2 62 5.1 ESE 28 41 15 22 1012.1 - 0.0
31/02:00pm 27.2 25.3 18.5 59 5.6 ESE 26 41 14 22 1012.4 - 0.0
31/01:30pm 26.3 24.3 18.4 61 5.0 ESE 26 35 14 19 1012.7 - 0.0
31/01:00pm 26.9 25.1 18.7 60 5.2 ESE 26 41 14 22 1013.2 - 0.0
31/12:30pm 26.3 24.3 18.4 61 5.0 SE 26 35 14 19 1013.7 - 0.0
31/12:00pm 26.3 24.5 17.9 60 5.3 SE 24 32 13 17 1014.0 1013.9 0.0
31/11:30am 26.8 25.3 19.4 64 4.8 SSE 26 39 14 21 1014.5 - 0.0
31/11:00am 26.7 24.7 18.3 60 5.3 ESE 26 35 14 19 1014.7 - 0.0
31/10:30am 25.4 23.8 18.3 65 4.5 SE 24 35 13 19 1015.2 - 0.0
31/10:00am 25.7 24.6 18.6 65 4.5 SE 22 35 12 19 1015.4 - 0.0
31/09:30am 24.5 22.1 18.2 68 4.0 ESE 28 39 15 21 1015.4 - 0.0
31/09:00am 24.3 23.0 19.1 73 3.3 SE 24 32 13 17 1015.5 1015.4 0.0
31/08:57am 24.4 23.6 19.2 73 3.3 SE 22 32 12 17 1015.5 - 0.0
31/08:30am 24.0 23.2 19.3 75 3.0 SE 22 32 12 17 1015.3 - 0.0
31/08:00am 23.1 24.6 19.7 81 2.2 SSE 11 15 6 8 1015.0 - 0.0
31/07:30am 21.5 24.8 19.1 86 1.5 CALM 0 9 0 5 1014.8 - 0.0
31/07:00am 20.7 22.7 18.8 89 1.2 S 6 9 3 5 1014.4 - 0.0
31/06:57am 20.7 22.6 19.0 90 1.1 S 7 9 4 5 1014.4 - 0.0
31/06:30am 21.1 24.4 19.0 88 1.3 CALM 0 7 0 4 1014.0 - 0.0
31/06:00am 21.5 23.9 18.7 84 1.8 SSE 4 7 2 4 1014.0 1013.9 0.0
31/05:30am 22.1 24.1 19.1 83 1.9 SSE 7 9 4 5 1013.5 - 0.0
31/05:00am 22.2 23.4 19.0 82 2.0 SE 11 13 6 7 1013.3 - 0.0
31/04:30am 22.4 23.1 18.8 80 2.3 SE 13 17 7 9 1013.0 - 0.0
31/04:00am 22.4 23.0 18.6 79 2.4 SE 13 20 7 11 1013.2 - 0.0
31/03:30am 22.8 23.0 18.6 77 2.6 SE 15 22 8 12 1013.1 - 0.0
31/03:00am 22.7 23.0 18.7 78 2.5 SE 15 20 8 11 1013.3 1013.1 0.0
31/02:30am 23.0 22.9 18.7 77 2.7 SE 17 28 9 15 1013.3 - 0.0
31/02:00am 23.0 23.3 18.7 77 2.7 SE 15 22 8 12 1013.6 - 0.0
31/01:30am 22.9 22.8 18.7 77 2.7 SE 17 22 9 12 1014.1 - 0.0
31/01:00am 22.6 23.2 18.6 78 2.5 SE 13 17 7 9 1014.5 - 0.0
31/12:30am 22.6 22.8 18.6 78 2.5 SE 15 20 8 11 1014.7 - 0.0
31/12:00am 22.5 23.1 18.5 78 2.5 SE 13 17 7 9 1015.1 1015.0 0.0
 
Date/Time
EST
Temp
°C
App
Temp
°C
Dew
Point
Rel
Hum
%
Delta-T
°C
Wind Press
QNH
hPa
Press
MSL
hPa
Rain
since 9 am
mm
Dir
 
Spd
km/h
Gust
km/h
Spd
kts
Gust
kts
30/11:30pm 22.7 22.4 18.3 76 2.8 SE 17 22 9 12 1015.3 - 0.0
30/11:00pm 22.9 22.0 18.2 75 2.9 SE 20 30 11 16 1015.3 - 0.0
30/10:30pm 22.9 22.5 18.0 74 3.1 SE 17 22 9 12 1015.6 - 0.0
30/10:00pm 22.9 22.1 18.0 74 3.1 SE 19 24 10 13 1015.5 - 0.0
30/09:30pm 23.0 21.9 17.7 72 3.3 SE 20 30 11 16 1015.6 - 0.0
30/09:00pm 23.3 21.7 17.5 70 3.6 SE 22 30 12 16 1015.6 1015.5 0.0
30/08:30pm 23.4 21.6 17.8 71 3.5 SE 24 35 13 19 1015.5 - 0.0
30/08:00pm 23.5 21.8 18.2 72 3.3 SE 24 35 13 19 1015.2 - 0.0
30/07:30pm 23.5 23.3 18.4 73 3.2 SE 17 28 9 15 1014.8 - 0.0
30/07:00pm 23.5 22.7 18.4 73 3.2 ESE 20 30 11 16 1014.5 - 0.0
30/06:30pm 23.8 23.3 18.7 73 3.2 SE 19 28 10 15 1014.1 - 0.0
30/06:00pm 24.2 23.5 18.6 71 3.5 SE 20 30 11 16 1013.7 1013.7 0.0
30/05:30pm 24.2 22.6 18.4 70 3.7 SE 24 33 13 18 1013.4 - 0.0
30/05:00pm 25.2 23.7 18.6 67 4.2 SE 24 35 13 19 1013.1 - 0.0
30/04:30pm 25.4 23.2 18.6 66 4.3 SE 28 37 15 20 1012.9 - 0.0
30/04:00pm 26.5 25.6 19.1 64 4.8 ESE 22 35 12 19 1012.5 - 0.0
30/03:30pm 25.7 24.7 18.9 66 4.3 SSE 22 32 12 17 1012.8 - 0.0
30/03:00pm 26.1 25.1 18.8 64 4.7 ESE 22 33 12 18 1013.0 1012.9 0.0
30/02:30pm 25.8 24.1 18.2 63 4.8 ESE 24 33 13 18 1013.3 - 0.0
30/02:00pm 26.1 24.2 17.7 60 5.3 ESE 24 39 13 21 1013.3 - 0.0
30/01:30pm 27.3 25.2 17.2 54 6.3 E 24 39 13 21 1013.6 - 0.0
30/01:00pm 26.4 24.4 18.3 61 5.1 ESE 26 39 14 21 1014.1 - 0.0
30/12:30pm 28.1 27.2 19.1 58 5.8 ESE 22 35 12 19 1014.7 - 0.0
30/12:00pm 27.2 25.6 19.3 62 5.1 ESE 26 33 14 18 1015.2 1015.1 0.0
30/11:30am 27.0 25.6 18.8 60 5.3 ESE 24 35 13 19 1015.5 - 0.0
30/11:00am 27.3 25.2 18.0 56 5.9 E 26 37 14 20 1015.8 - 0.0
30/10:30am 27.6 26.1 18.6 58 5.8 ESE 24 35 13 19 1016.2 - 0.0

Other Formats:

Comma delimited format used in spreadsheet applications
http://www.bom.gov.au/fwo/IDQ60801/IDQ60801.94186.axf

JavaScript Object Notation format (JSON) in row-major order
http://www.bom.gov.au/fwo/IDQ60801/IDQ60801.94186.json